Time;durP1;ratioP1;P1;durP2;ratioP2;P2;SDS_P1;SDS_P2;PMS_P1;PMS_P2;Temp;Humidity;BMP_temperature;BMP_pressure;BME280_temperature;BME280_humidity;BME280_pressure;Samples;Min_cycle;Max_cycle;Signal;HPM_P1;HPM_P2
2022/06/10 00:00:56;;;;;;;4.05;3.28;;;17.80;99.90;;;;;;5041166;28;20025;-64
2022/06/10 00:03:25;;;;;;;3.80;3.50;;;17.80;99.90;;;;;;5026976;28;20135;-65
2022/06/10 00:05:54;;;;;;;4.22;3.83;;;17.80;99.90;;;;;;5046361;28;20036;-65
2022/06/10 00:08:23;;;;;;;62.85;8.20;;;17.80;99.90;;;;;;5044663;28;20063;-64
2022/06/10 00:10:50;;;;;;;4.30;3.85;;;17.90;99.90;;;;;;5045087;28;20391;-64
2022/06/10 00:13:18;;;;;;;4.80;4.35;;;18.00;99.90;;;;;;5044877;28;20029;-64
2022/06/10 00:15:45;;;;;;;4.63;4.18;;;18.00;99.90;;;;;;5043361;28;20035;-64
2022/06/10 00:18:11;;;;;;;5.20;4.20;;;18.00;99.90;;;;;;5046522;28;20028;-64
2022/06/10 00:20:37;;;;;;;4.70;4.35;;;18.00;99.90;;;;;;5044711;28;20040;-65
2022/06/10 00:23:04;;;;;;;14.75;4.40;;;18.00;99.90;;;;;;5047789;28;20032;-65
2022/06/10 00:25:29;;;;;;;6.03;3.92;;;18.00;99.90;;;;;;5044417;28;20028;-65
2022/06/10 00:27:55;;;;;;;7.38;4.05;;;18.10;99.90;;;;;;5046042;28;20040;-65
2022/06/10 00:30:26;;;;;;;4.32;3.97;;;18.10;99.90;;;;;;5044023;28;20058;-65
2022/06/10 00:32:52;;;;;;;4.47;4.15;;;18.10;99.90;;;;;;5040662;28;20041;-64
2022/06/10 00:35:18;;;;;;;5.00;4.28;;;18.10;99.90;;;;;;5044099;28;20464;-65
2022/06/10 00:37:44;;;;;;;4.90;3.90;;;18.10;99.90;;;;;;5041269;28;20033;-64
2022/06/10 00:40:32;;;;;;;7.03;3.70;;;18.00;99.90;;;;;;5041609;28;21280;-65
2022/06/10 00:42:58;;;;;;;3.95;3.50;;;18.00;99.90;;;;;;5046829;28;20040;-65
2022/06/10 00:45:52;;;;;;;5.35;4.13;;;18.00;99.90;;;;;;5044493;28;20794;-65
2022/06/10 00:48:29;;;;;;;5.10;4.70;;;18.00;99.90;;;;;;5044407;28;20025;-65
2022/06/10 00:50:56;;;;;;;5.78;5.35;;;18.00;99.90;;;;;;5041337;28;20141;-65
2022/06/10 00:53:26;;;;;;;6.40;5.55;;;17.90;99.90;;;;;;5046068;28;20592;-65
2022/06/10 00:55:55;;;;;;;5.53;5.13;;;18.00;99.90;;;;;;5047429;28;20116;-65
2022/06/10 00:58:40;;;;;;;5.97;4.97;;;18.00;99.90;;;;;;5043968;28;20099;-65
2022/06/10 01:01:08;;;;;;;6.15;5.55;;;18.00;99.90;;;;;;5042656;28;20025;-65
2022/06/10 01:03:34;;;;;;;9.75;5.63;;;18.00;99.90;;;;;;5038734;28;20488;-65
2022/06/10 01:06:00;;;;;;;7.63;6.55;;;18.00;99.90;;;;;;5047778;28;20069;-64
2022/06/10 01:08:26;;;;;;;6.40;5.80;;;18.00;99.90;;;;;;5044525;28;20056;-65
2022/06/10 01:11:03;;;;;;;5.88;5.38;;;17.90;99.90;;;;;;5033717;28;20037;-63
2022/06/10 01:13:43;;;;;;;5.88;5.38;;;18.00;99.90;;;;;;5044590;28;20816;-65
2022/06/10 01:16:35;;;;;;;9.32;5.53;;;18.00;99.90;;;;;;5045573;28;20021;-64
2022/06/10 01:19:18;;;;;;;5.85;5.35;;;18.00;99.90;;;;;;5044180;28;20040;-65
2022/06/10 01:21:59;;;;;;;5.70;5.10;;;18.10;99.90;;;;;;5039825;28;20801;-64
2022/06/10 01:24:43;;;;;;;6.20;5.60;;;18.10;99.90;;;;;;5042746;28;20437;-65
2022/06/10 01:30:14;;;;;;;5.13;4.72;;;18.20;99.90;;;;;;5040092;28;20614;-65
2022/06/10 01:33:07;;;;;;;5.60;5.20;;;18.20;99.90;;;;;;5040801;28;20091;-66
2022/06/10 01:35:45;;;;;;;6.05;5.53;;;18.20;99.90;;;;;;5036649;28;20124;-66
2022/06/10 01:38:23;;;;;;;6.00;5.43;;;18.20;99.90;;;;;;5049963;28;20037;-65
2022/06/10 01:41:14;;;;;;;6.30;5.80;;;18.20;99.90;;;;;;5042039;28;20046;-64
2022/06/10 01:44:17;;;;;;;8.85;6.00;;;18.20;99.90;;;;;;5041918;28;20140;-64
2022/06/10 01:47:00;;;;;;;6.20;5.70;;;18.30;99.90;;;;;;5045114;28;21165;-64
2022/06/10 01:49:30;;;;;;;7.68;5.40;;;18.20;99.90;;;;;;5040945;28;20029;-64
2022/06/10 01:52:08;;;;;;;6.05;5.32;;;18.20;99.90;;;;;;5043536;28;20350;-64
2022/06/10 01:54:48;;;;;;;8.68;5.75;;;18.10;99.90;;;;;;5043229;28;20059;-64
2022/06/10 01:57:22;;;;;;;5.90;5.30;;;18.00;99.90;;;;;;5043112;28;20029;-64
2022/06/10 02:00:07;;;;;;;5.70;5.20;;;18.00;99.90;;;;;;5037022;28;20039;-64
2022/06/10 02:02:37;;;;;;;5.93;5.43;;;18.10;99.90;;;;;;5047780;28;20040;-64
2022/06/10 02:05:09;;;;;;;6.00;5.43;;;18.10;99.90;;;;;;5041768;28;20182;-64
2022/06/10 02:07:39;;;;;;;6.60;4.50;;;18.10;99.90;;;;;;5043576;28;20403;-64
2022/06/10 02:10:31;;;;;;;6.47;5.30;;;18.10;99.90;;;;;;5045386;28;20071;-64
2022/06/10 02:13:01;;;;;;;10.65;5.00;;;18.10;99.90;;;;;;5037393;28;20037;-64
2022/06/10 02:15:33;;;;;;;5.30;4.90;;;18.10;99.90;;;;;;5041823;28;20560;-64
2022/06/10 02:18:28;;;;;;;6.90;4.60;;;18.10;99.90;;;;;;5039918;28;20024;-64
2022/06/10 02:20:59;;;;;;;5.65;4.57;;;18.10;99.90;;;;;;5041624;28;20040;-64
2022/06/10 02:23:29;;;;;;;7.35;4.78;;;18.10;99.90;;;;;;5038760;28;20068;-64
2022/06/10 02:25:56;;;;;;;4.80;4.50;;;18.00;99.90;;;;;;5047641;28;20522;-64
2022/06/10 02:28:55;;;;;;;7.63;4.47;;;17.90;99.90;;;;;;5038980;28;20202;-64
2022/06/10 02:31:32;;;;;;;5.80;4.00;;;18.00;99.90;;;;;;5040768;28;20037;-64
2022/06/10 02:34:00;;;;;;;5.32;4.57;;;18.10;99.90;;;;;;5039448;28;24621;-64
2022/06/10 02:36:40;;;;;;;9.18;5.20;;;18.20;99.90;;;;;;5042437;28;20025;-64
2022/06/10 02:39:35;;;;;;;10.20;5.00;;;18.20;99.90;;;;;;5044193;28;20041;-64
2022/06/10 02:42:10;;;;;;;6.90;5.22;;;18.20;99.90;;;;;;5038796;28;21129;-64
2022/06/10 02:44:57;;;;;;;5.38;4.60;;;18.20;99.90;;;;;;5043504;28;20045;-64
2022/06/10 02:47:43;;;;;;;5.15;4.70;;;18.20;99.90;;;;;;5037118;28;20028;-65
2022/06/10 02:50:14;;;;;;;6.30;4.70;;;18.10;99.90;;;;;;5038014;28;20028;-64
2022/06/10 02:52:40;;;;;;;6.15;5.00;;;18.00;99.90;;;;;;5039865;28;20147;-64
2022/06/10 02:55:12;;;;;;;5.72;4.35;;;18.00;99.90;;;;;;5044942;28;20036;-64
2022/06/10 03:03:10;;;;;;;5.10;4.70;;;17.90;99.90;;;;;;5040569;28;20093;-64
2022/06/10 03:06:30;;;;;;;5.15;4.40;;;17.90;99.90;;;;;;5034679;28;20089;-64
2022/06/10 03:09:31;;;;;;;5.80;5.03;;;17.90;99.90;;;;;;5038999;28;20032;-64
2022/06/10 03:12:18;;;;;;;4.88;4.47;;;18.00;99.90;;;;;;5042923;28;20047;-64
2022/06/10 03:14:57;;;;;;;12.50;6.28;;;18.00;99.90;;;;;;5039359;28;20045;-64
2022/06/10 03:17:37;;;;;;;5.32;4.85;;;18.10;99.90;;;;;;5042165;28;20032;-64
2022/06/10 03:20:24;;;;;;;5.50;5.00;;;18.10;99.90;;;;;;5034716;28;20058;-64
2022/06/10 03:23:16;;;;;;;5.65;5.15;;;18.10;99.90;;;;;;5038858;28;20039;-64
2022/06/10 03:25:42;;;;;;;6.13;5.53;;;18.00;99.90;;;;;;5041055;28;20029;-64
2022/06/10 03:28:46;;;;;;;5.30;4.90;;;17.90;99.90;;;;;;5036026;28;20039;-63
2022/06/10 03:31:18;;;;;;;5.63;5.13;;;17.90;99.90;;;;;;5039868;28;20080;-70
2022/06/10 03:33:49;;;;;;;5.47;5.00;;;18.00;99.90;;;;;;5061002;28;20477;-70
2022/06/10 03:36:17;;;;;;;5.15;4.68;;;17.90;99.90;;;;;;5038812;28;20058;-70
2022/06/10 03:38:49;;;;;;;5.72;4.75;;;17.80;99.90;;;;;;5038905;28;20035;-70
2022/06/10 03:41:22;;;;;;;5.72;5.22;;;17.70;99.90;;;;;;5043265;28;20757;-70
2022/06/10 03:43:50;;;;;;;5.43;4.93;;;17.80;99.90;;;;;;5039057;28;20084;-70
2022/06/10 03:46:18;;;;;;;5.90;5.30;;;17.80;99.90;;;;;;5044419;28;20028;-70
2022/06/10 03:48:45;;;;;;;4.90;4.50;;;17.90;99.90;;;;;;5043348;28;20659;-70
2022/06/10 03:51:13;;;;;;;11.82;5.32;;;17.90;99.90;;;;;;5044717;28;20040;-70
2022/06/10 03:53:39;;;;;;;6.30;5.35;;;18.00;99.90;;;;;;5036897;28;20056;-70
2022/06/10 03:56:05;;;;;;;8.95;5.00;;;18.00;99.90;;;;;;5044449;28;20158;-71
2022/06/10 03:58:31;;;;;;;7.07;5.70;;;17.90;99.90;;;;;;5045927;28;20501;-70
2022/06/10 04:00:58;;;;;;;5.13;4.70;;;18.00;99.90;;;;;;5038295;28;20076;-71
2022/06/10 04:03:25;;;;;;;5.25;4.85;;;18.00;99.90;;;;;;5041680;28;20053;-70
2022/06/10 04:05:50;;;;;;;5.60;5.10;;;18.10;99.90;;;;;;5044303;28;20043;-71
2022/06/10 04:08:16;;;;;;;7.07;5.13;;;18.20;99.90;;;;;;5042918;28;20505;-70
2022/06/10 04:10:42;;;;;;;5.80;5.13;;;18.20;99.90;;;;;;5040264;28;20473;-70
2022/06/10 04:13:08;;;;;;;7.10;5.35;;;18.20;99.90;;;;;;5045924;28;20555;-71
2022/06/10 04:15:34;;;;;;;5.78;5.22;;;18.30;99.90;;;;;;5040846;28;20043;-71
2022/06/10 04:17:59;;;;;;;6.53;5.38;;;18.30;99.90;;;;;;5039981;28;20105;-71
2022/06/10 04:20:35;;;;;;;6.03;5.57;;;18.40;99.90;;;;;;5041772;28;20507;-71
2022/06/10 04:23:03;;;;;;;6.80;5.78;;;18.50;99.90;;;;;;5041821;28;20049;-71
2022/06/10 04:25:29;;;;;;;6.22;5.72;;;18.50;99.90;;;;;;5074146;28;20032;-71
2022/06/10 04:27:55;;;;;;;8.50;5.05;;;18.50;99.90;;;;;;5034757;28;20127;-70
2022/06/10 04:30:26;;;;;;;5.60;5.10;;;18.60;99.90;;;;;;5041498;28;20271;-70
2022/06/10 04:32:52;;;;;;;5.95;5.35;;;18.60;99.90;;;;;;5044921;28;20039;-70
2022/06/10 04:35:18;;;;;;;5.80;5.30;;;18.70;99.90;;;;;;5035082;28;20033;-70
2022/06/10 04:37:45;;;;;;;5.32;4.93;;;18.80;99.90;;;;;;5040719;28;20033;-70
2022/06/10 04:40:18;;;;;;;5.65;5.15;;;18.80;99.90;;;;;;5041185;28;20045;-71
2022/06/10 04:42:46;;;;;;;5.40;4.90;;;18.90;99.90;;;;;;5036276;28;20497;-70
2022/06/10 04:45:12;;;;;;;5.18;4.32;;;19.00;99.90;;;;;;5039239;28;20136;-70
2022/06/10 04:47:38;;;;;;;6.10;4.30;;;19.00;99.90;;;;;;5040714;28;20028;-70
2022/06/10 04:50:05;;;;;;;5.53;4.60;;;19.10;99.90;;;;;;5035535;28;20152;-70
2022/06/10 04:52:30;;;;;;;5.03;4.20;;;19.10;99.90;;;;;;5042676;28;20039;-70
2022/06/10 04:54:56;;;;;;;7.03;4.88;;;19.20;99.90;;;;;;5045436;28;21413;-70
2022/06/10 04:57:22;;;;;;;5.20;4.68;;;19.20;99.90;;;;;;5041521;28;20397;-70
2022/06/10 04:59:47;;;;;;;4.20;3.90;;;19.20;99.90;;;;;;5045871;28;20013;-69
2022/06/10 05:02:14;;;;;;;5.03;4.53;;;19.20;99.90;;;;;;5039472;28;20716;-69
2022/06/10 05:04:39;;;;;;;6.10;4.53;;;19.20;99.90;;;;;;5052998;28;20569;-69
2022/06/10 05:07:05;;;;;;;5.05;4.07;;;19.20;99.90;;;;;;5042421;28;20073;-71
2022/06/10 05:09:31;;;;;;;8.18;4.60;;;19.20;99.90;;;;;;5046916;28;20070;-69
2022/06/10 05:11:57;;;;;;;14.80;3.88;;;19.20;99.90;;;;;;5051816;28;20029;-70
2022/06/10 05:14:22;;;;;;;7.35;3.42;;;19.30;99.90;;;;;;5048646;28;20025;-71
2022/06/10 05:16:48;;;;;;;9.50;3.78;;;19.40;99.90;;;;;;5048618;28;20512;-71
2022/06/10 05:19:14;;;;;;;4.60;3.58;;;19.50;99.90;;;;;;5038369;28;20019;-70
2022/06/10 05:21:39;;;;;;;5.28;3.70;;;19.60;99.90;;;;;;5047442;28;20560;-71
2022/06/10 05:24:05;;;;;;;3.85;3.42;;;19.60;99.90;;;;;;5037723;28;20053;-71
2022/06/10 05:26:32;;;;;;;5.22;3.90;;;19.70;99.90;;;;;;5039916;28;20390;-71
2022/06/10 05:29:01;;;;;;;5.82;3.15;;;19.80;99.90;;;;;;5051598;28;20644;-71
2022/06/10 05:31:27;;;;;;;4.45;2.60;;;19.90;99.90;;;;;;5042979;28;20188;-71
2022/06/10 05:36:38;;;;;;;5.07;2.83;;;20.00;99.90;;;;;;5044015;28;20120;-70
2022/06/10 05:39:06;;;;;;;3.95;3.03;;;20.00;99.90;;;;;;5042475;28;20032;-71
2022/06/10 05:44:16;;;;;;;3.25;2.70;;;20.00;99.90;;;;;;5047817;28;20071;-63
2022/06/10 05:46:43;;;;;;;5.93;2.70;;;20.00;99.90;;;;;;5042562;28;20040;-63
2022/06/10 05:49:09;;;;;;;3.60;3.00;;;20.10;99.90;;;;;;5050540;28;20032;-64
2022/06/10 05:51:34;;;;;;;8.98;3.45;;;20.10;99.90;;;;;;5039499;28;20782;-63
2022/06/10 05:54:00;;;;;;;4.70;2.85;;;20.20;99.90;;;;;;5045639;28;20045;-64
2022/06/10 05:56:27;;;;;;;2.83;2.63;;;20.20;99.90;;;;;;5043834;28;20032;-63
2022/06/10 05:58:52;;;;;;;9.43;2.58;;;20.30;99.90;;;;;;5045101;28;20043;-63
2022/06/10 06:01:18;;;;;;;3.10;2.28;;;20.40;99.90;;;;;;5043981;28;20658;-63
2022/06/10 06:03:43;;;;;;;3.65;2.45;;;20.50;99.90;;;;;;5048354;28;20061;-63
2022/06/10 06:06:10;;;;;;;4.82;3.08;;;20.50;99.90;;;;;;5048043;28;20626;-63
2022/06/10 06:08:36;;;;;;;3.28;2.97;;;20.50;99.90;;;;;;5046160;28;20040;-63
2022/06/10 06:11:02;;;;;;;4.90;2.88;;;20.50;99.90;;;;;;5053554;28;20063;-63
2022/06/10 06:13:28;;;;;;;3.63;3.08;;;20.50;99.90;;;;;;5043591;28;20466;-63
2022/06/10 06:15:53;;;;;;;3.30;2.92;;;20.50;99.90;;;;;;5041925;28;20033;-63
2022/06/10 06:18:19;;;;;;;3.05;2.80;;;20.50;99.90;;;;;;5044310;28;20061;-63
2022/06/10 06:20:45;;;;;;;5.18;3.00;;;20.60;99.90;;;;;;5046023;28;20029;-63
2022/06/10 06:23:11;;;;;;;5.13;2.80;;;20.60;99.90;;;;;;5046366;28;20557;-63
2022/06/10 06:25:38;;;;;;;4.03;2.65;;;20.60;99.90;;;;;;5050595;28;20183;-63
2022/06/10 06:28:04;;;;;;;3.72;3.38;;;20.40;99.90;;;;;;5048515;28;20016;-63
2022/06/10 06:30:33;;;;;;;3.30;2.88;;;20.50;99.90;;;;;;5043781;28;20112;-63
2022/06/10 06:33:02;;;;;;;5.60;2.95;;;20.50;99.90;;;;;;5042019;28;20025;-63
2022/06/10 06:35:29;;;;;;;3.65;2.78;;;20.60;99.90;;;;;;5048869;28;20071;-63
2022/06/10 06:37:55;;;;;;;5.53;3.17;;;20.60;99.90;;;;;;5050688;28;20076;-63
2022/06/10 06:40:21;;;;;;;4.32;3.00;;;20.60;99.90;;;;;;5043365;28;20424;-62
2022/06/10 06:42:48;;;;;;;4.20;3.22;;;20.60;99.90;;;;;;5048671;28;20128;-62
2022/06/10 06:45:15;;;;;;;3.65;3.08;;;20.60;99.90;;;;;;5047409;28;20081;-63
2022/06/10 06:47:41;;;;;;;3.95;3.58;;;20.60;99.90;;;;;;5046505;28;20723;-63
2022/06/10 06:50:09;;;;;;;4.53;3.13;;;20.60;99.90;;;;;;5038930;28;20020;-62
2022/06/10 06:52:35;;;;;;;4.18;3.38;;;20.60;99.90;;;;;;5046292;28;20542;-63
2022/06/10 06:55:01;;;;;;;3.50;3.20;;;20.70;99.90;;;;;;5043859;28;20079;-63
2022/06/10 06:57:27;;;;;;;3.83;3.42;;;20.70;99.90;;;;;;5048792;28;20029;-63
2022/06/10 06:59:53;;;;;;;4.47;3.28;;;20.70;99.90;;;;;;5042253;28;20059;-63
2022/06/10 07:02:20;;;;;;;3.67;3.28;;;20.70;99.90;;;;;;5043507;28;20607;-63
2022/06/10 07:04:45;;;;;;;3.67;3.20;;;20.80;99.90;;;;;;5043079;28;20040;-63
2022/06/10 07:07:11;;;;;;;4.75;3.67;;;20.90;99.90;;;;;;5038972;28;20484;-63
2022/06/10 07:09:38;;;;;;;5.80;3.10;;;21.00;99.90;;;;;;5049576;28;20032;-63
2022/06/10 07:12:04;;;;;;;3.15;2.90;;;21.10;99.90;;;;;;5045283;28;20113;-63
2022/06/10 07:14:29;;;;;;;3.78;3.47;;;21.20;99.90;;;;;;5044881;28;20032;-64
2022/06/10 07:16:55;;;;;;;4.43;3.22;;;21.30;99.90;;;;;;5040463;28;20029;-63
2022/06/10 07:19:22;;;;;;;3.08;2.83;;;21.30;99.90;;;;;;5048788;28;20438;-64
2022/06/10 07:21:48;;;;;;;4.57;3.25;;;21.40;99.90;;;;;;5045460;28;20116;-63
2022/06/10 07:24:14;;;;;;;4.47;3.38;;;21.50;99.90;;;;;;5048878;28;20040;-63
2022/06/10 07:26:40;;;;;;;3.30;3.00;;;21.60;99.90;;;;;;5056631;28;20377;-63
2022/06/10 07:29:06;;;;;;;3.47;3.03;;;21.70;99.90;;;;;;5046610;28;20396;-63
2022/06/10 07:31:32;;;;;;;4.30;3.17;;;21.70;99.90;;;;;;5048143;28;20025;-63
2022/06/10 07:33:58;;;;;;;3.55;3.25;;;21.80;99.90;;;;;;5047056;28;20033;-63
2022/06/10 07:36:26;;;;;;;3.63;2.70;;;21.80;99.90;;;;;;5077794;28;20047;-63
2022/06/10 07:38:53;;;;;;;4.13;3.35;;;21.90;99.90;;;;;;5051681;28;20031;-71
2022/06/10 07:44:03;;;;;;;2.80;2.60;;;22.10;99.90;;;;;;5051279;28;20047;-70
2022/06/10 07:46:29;;;;;;;4.75;3.13;;;22.20;99.90;;;;;;5042042;28;20032;-70
2022/06/10 07:48:54;;;;;;;4.20;2.67;;;22.30;99.90;;;;;;5044366;28;20139;-70
2022/06/10 07:51:20;;;;;;;3.20;2.90;;;22.50;99.90;;;;;;5051933;28;20113;-70
2022/06/10 07:53:47;;;;;;;2.97;2.30;;;22.80;99.90;;;;;;5040498;28;20045;-70
2022/06/10 07:56:15;;;;;;;4.63;2.58;;;23.00;99.90;;;;;;5033641;28;20021;-70
2022/06/10 07:58:41;;;;;;;3.33;2.38;;;23.20;99.90;;;;;;5051033;28;20067;-63
2022/06/10 08:01:07;;;;;;;2.78;2.17;;;23.30;99.90;;;;;;5049861;28;20040;-63
2022/06/10 08:03:33;;;;;;;2.00;1.80;;;23.40;99.90;;;;;;5036214;28;20144;-64
2022/06/10 08:05:59;;;;;;;4.38;2.15;;;23.40;99.90;;;;;;5037807;28;20457;-64
2022/06/10 08:08:25;;;;;;;4.55;2.45;;;23.50;99.90;;;;;;5030941;28;20032;-63
2022/06/10 08:10:51;;;;;;;2.33;1.85;;;23.50;99.90;;;;;;5042073;28;20324;-63
2022/06/10 08:13:17;;;;;;;3.63;2.38;;;23.60;99.90;;;;;;5034955;28;20039;-64
2022/06/10 08:15:44;;;;;;;3.83;2.47;;;23.70;99.90;;;;;;5048435;28;20054;-63
2022/06/10 08:18:12;;;;;;;5.20;3.10;;;23.80;99.90;;;;;;5048057;28;20029;-63
2022/06/10 08:23:27;;;;;;;3.88;2.50;;;23.90;99.90;;;;;;5049543;28;20144;-63
2022/06/10 08:25:54;;;;;;;3.78;2.30;;;24.00;99.90;;;;;;5039839;28;20056;-63
2022/06/10 08:28:20;;;;;;;3.15;2.58;;;24.00;99.90;;;;;;5051794;28;20044;-63
2022/06/10 08:30:46;;;;;;;2.47;2.28;;;24.10;99.90;;;;;;5046044;28;20016;-62
2022/06/10 08:33:12;;;;;;;3.28;2.55;;;24.20;99.90;;;;;;5046540;28;21290;-63
2022/06/10 08:35:38;;;;;;;2.55;2.35;;;24.30;99.90;;;;;;5039386;28;20036;-63
2022/06/10 08:38:07;;;;;;;8.45;2.63;;;24.30;99.90;;;;;;5038719;28;20025;-63
2022/06/10 08:40:58;;;;;;;2.55;2.08;;;24.40;99.90;;;;;;5046258;28;20033;-62
2022/06/10 08:43:43;;;;;;;4.10;2.47;;;24.40;99.90;;;;;;5044260;28;21756;-63
2022/06/10 08:46:27;;;;;;;2.60;2.40;;;24.40;98.10;;;;;;5042712;28;20036;-63
2022/06/10 08:49:17;;;;;;;3.78;2.55;;;24.40;99.90;;;;;;5049178;28;20504;-63
2022/06/10 08:52:00;;;;;;;2.65;2.45;;;24.50;99.90;;;;;;5037740;28;20033;-63
2022/06/10 08:54:36;;;;;;;2.85;2.42;;;24.60;99.60;;;;;;5044585;28;20125;-63
2022/06/10 08:57:15;;;;;;;2.60;2.35;;;24.70;99.90;;;;;;5042916;28;20045;-63
2022/06/10 08:59:45;;;;;;;3.35;2.75;;;24.70;99.60;;;;;;5044002;28;20105;-73
2022/06/10 09:02:32;;;;;;;3.63;2.35;;;24.80;99.90;;;;;;5042105;28;20552;-73
2022/06/10 09:05:15;;;;;;;3.83;2.47;;;24.80;99.50;;;;;;5052990;28;20025;-74
2022/06/10 09:07:48;;;;;;;3.92;2.75;;;24.80;99.20;;;;;;5035595;28;20033;-72
2022/06/10 09:10:42;;;;;;;4.05;2.40;;;24.80;99.70;;;;;;5048344;28;20053;-74
2022/06/10 09:13:10;;;;;;;2.47;2.28;;;24.70;99.50;;;;;;5054073;28;20027;-72
2022/06/10 09:15:45;;;;;;;3.55;2.70;;;24.60;98.80;;;;;;5044093;28;20064;-74
2022/06/10 09:18:40;;;;;;;3.08;2.72;;;24.70;99.90;;;;;;5052719;28;20028;-74
2022/06/10 09:21:17;;;;;;;3.65;2.30;;;24.70;99.90;;;;;;5043548;28;20024;-74
2022/06/10 09:23:44;;;;;;;3.22;2.50;;;24.80;99.90;;;;;;5042514;28;20063;-74
2022/06/10 09:26:19;;;;;;;2.67;2.47;;;24.90;99.90;;;;;;5050862;28;20025;-75
2022/06/10 09:28:45;;;;;;;2.75;2.40;;;25.10;99.90;;;;;;5051025;28;20033;-73
2022/06/10 09:31:29;;;;;;;3.92;2.53;;;25.10;99.10;;;;;;5040949;28;20059;-73
2022/06/10 09:34:20;;;;;;;4.45;2.42;;;25.20;99.20;;;;;;5040410;28;20074;-73
2022/06/10 09:36:59;;;;;;;2.93;2.60;;;25.20;99.70;;;;;;5019415;28;20493;-73
2022/06/10 09:42:23;;;;;;;4.32;2.35;;;25.30;98.60;;;;;;5042684;28;20075;-73
2022/06/10 09:45:03;;;;;;;4.15;2.80;;;25.30;97.90;;;;;;5041003;28;20065;-73
2022/06/10 09:47:39;;;;;;;3.88;2.20;;;25.30;98.60;;;;;;5044895;28;20024;-74
2022/06/10 09:50:36;;;;;;;3.28;2.45;;;25.40;99.30;;;;;;5032111;28;20042;-73
2022/06/10 09:53:09;;;;;;;4.30;2.60;;;25.50;99.20;;;;;;5044246;28;20040;-74
2022/06/10 09:55:34;;;;;;;4.55;2.42;;;25.50;99.40;;;;;;5054494;28;20351;-73
2022/06/10 09:58:32;;;;;;;3.17;2.47;;;25.60;99.90;;;;;;5047076;28;20032;-72
2022/06/10 10:00:57;;;;;;;3.38;2.70;;;25.70;99.90;;;;;;5044895;28;20126;-74
2022/06/10 10:03:40;;;;;;;3.60;2.60;;;25.70;99.90;;;;;;5036479;28;20143;-71
2022/06/10 10:06:26;;;;;;;2.88;2.67;;;25.60;99.10;;;;;;5044631;28;20043;-73
2022/06/10 10:09:05;;;;;;;2.65;2.30;;;25.60;98.60;;;;;;5023919;28;20082;-72
2022/06/10 10:11:48;;;;;;;5.53;3.28;;;25.50;99.00;;;;;;5042603;28;20094;-72
2022/06/10 10:14:23;;;;;;;4.15;2.60;;;25.50;99.80;;;;;;5039341;28;20024;-71
2022/06/10 10:16:57;;;;;;;6.10;2.38;;;25.40;99.30;;;;;;5050089;28;20082;-72
2022/06/10 10:19:23;;;;;;;3.10;2.58;;;25.40;99.20;;;;;;5053930;28;20510;-73
2022/06/10 10:22:03;;;;;;;2.63;2.40;;;25.40;99.90;;;;;;5052029;28;20037;-73
2022/06/10 10:24:37;;;;;;;4.15;2.60;;;25.50;99.90;;;;;;5052267;28;20576;-73
2022/06/10 10:27:08;;;;;;;3.80;2.47;;;25.60;99.90;;;;;;5049227;28;20044;-74
2022/06/10 10:29:40;;;;;;;4.15;2.50;;;25.80;99.90;;;;;;5051980;28;21090;-73
2022/06/10 10:32:26;;;;;;;4.32;2.40;;;25.90;99.30;;;;;;5049291;28;21104;-73
2022/06/10 10:35:03;;;;;;;2.17;2.03;;;26.00;98.80;;;;;;5041585;28;20095;-73
2022/06/10 10:37:32;;;;;;;3.80;2.20;;;25.90;97.00;;;;;;5046904;28;20053;-73
2022/06/10 10:40:20;;;;;;;4.18;2.60;;;25.90;97.40;;;;;;5044493;28;20037;-72
2022/06/10 10:42:49;;;;;;;2.35;2.22;;;25.80;97.70;;;;;;5032553;28;21900;-73
2022/06/10 10:45:22;;;;;;;2.75;2.55;;;25.80;97.70;;;;;;5044440;28;20044;-74
2022/06/10 10:47:57;;;;;;;2.80;2.60;;;25.80;96.80;;;;;;5042330;28;20025;-73
2022/06/10 10:50:32;;;;;;;4.32;2.30;;;25.90;98.00;;;;;;5049728;28;20112;-74
2022/06/10 10:53:02;;;;;;;3.00;2.15;;;26.00;97.60;;;;;;5055243;28;20049;-73
2022/06/10 10:55:38;;;;;;;2.63;2.40;;;26.00;96.60;;;;;;5051624;28;20032;-73
2022/06/10 10:58:14;;;;;;;2.60;2.33;;;26.10;96.20;;;;;;5049149;28;20013;-73
2022/06/10 11:00:44;;;;;;;3.92;2.00;;;26.10;95.50;;;;;;5042731;28;20032;-73
2022/06/10 11:03:28;;;;;;;2.83;2.10;;;26.10;94.00;;;;;;5045789;28;20037;-72
2022/06/10 11:05:57;;;;;;;2.20;1.90;;;26.20;97.50;;;;;;5048867;28;20024;-72
2022/06/10 11:08:28;;;;;;;3.63;2.08;;;26.30;93.90;;;;;;5046041;28;20028;-72
2022/06/10 11:11:04;;;;;;;5.13;3.83;;;26.30;95.90;;;;;;5044059;28;20123;-73
2022/06/10 11:13:48;;;;;;;2.72;2.20;;;26.40;95.10;;;;;;5044849;28;20035;-72
2022/06/10 11:16:26;;;;;;;3.47;1.60;;;26.40;93.10;;;;;;5051650;28;20033;-73
2022/06/10 11:19:13;;;;;;;2.08;1.90;;;26.50;91.60;;;;;;5053030;28;20123;-73
2022/06/10 11:22:10;;;;;;;2.90;2.05;;;26.40;94.20;;;;;;5046878;28;20176;-73
2022/06/10 11:24:39;;;;;;;3.63;1.75;;;26.50;94.80;;;;;;5030888;28;20045;-73
2022/06/10 11:27:27;;;;;;;3.10;2.17;;;26.40;93.00;;;;;;5046171;28;20024;-71
2022/06/10 11:30:21;;;;;;;2.63;2.20;;;26.40;94.80;;;;;;5034798;28;20136;-72
2022/06/10 11:32:51;;;;;;;2.35;2.15;;;26.60;96.50;;;;;;5047829;28;20045;-71
2022/06/10 11:35:34;;;;;;;3.95;2.55;;;26.60;95.00;;;;;;5035641;28;20581;-71
2022/06/10 11:38:16;;;;;;;3.15;2.20;;;26.60;96.00;;;;;;5035554;28;20116;-72
2022/06/10 11:40:52;;;;;;;2.38;2.15;;;26.70;96.30;;;;;;5047919;28;20784;-73
2022/06/10 11:43:28;;;;;;;2.95;2.55;;;26.80;95.00;;;;;;5041316;28;20041;-72
2022/06/10 11:46:32;;;;;;;2.47;2.20;;;26.80;96.50;;;;;;5031278;28;20025;-71
2022/06/10 11:49:19;;;;;;;3.85;2.30;;;26.80;96.00;;;;;;5002013;28;20097;-72
2022/06/10 11:51:52;;;;;;;3.05;2.63;;;26.80;97.70;;;;;;5006665;28;20513;-72
2022/06/10 11:54:26;;;;;;;3.35;2.33;;;26.90;97.30;;;;;;5028804;28;20097;-72
2022/06/10 12:00:19;;;;;;;3.25;2.40;;;26.90;96.90;;;;;;5043547;28;20047;-72
2022/06/10 12:03:11;;;;;;;2.72;2.25;;;26.80;95.50;;;;;;5046479;28;20124;-71
2022/06/10 12:06:04;;;;;;;2.63;2.42;;;26.70;95.40;;;;;;5043686;28;20132;-71
2022/06/10 12:08:48;;;;;;;2.80;2.15;;;26.70;96.70;;;;;;5043407;28;20033;-71
2022/06/10 12:11:33;;;;;;;3.15;2.20;;;26.80;96.00;;;;;;5044363;28;20164;-70
2022/06/10 12:14:16;;;;;;;5.60;2.47;;;26.80;95.70;;;;;;5052437;28;20032;-70
2022/06/10 12:16:57;;;;;;;2.67;2.10;;;26.90;95.50;;;;;;5084295;28;20575;-71
2022/06/10 12:19:30;;;;;;;3.70;2.50;;;26.90;94.80;;;;;;5059073;28;20078;-71
2022/06/10 12:21:55;;;;;;;5.70;2.60;;;26.80;95.60;;;;;;5045662;28;20040;-71
2022/06/10 12:24:21;;;;;;;4.95;2.90;;;26.80;96.00;;;;;;5059137;28;20063;-72
2022/06/10 12:27:03;;;;;;;4.85;2.63;;;26.90;98.30;;;;;;5049584;28;20029;-71
2022/06/10 12:29:49;;;;;;;2.33;2.13;;;27.00;97.60;;;;;;5051073;28;20903;-70
2022/06/10 12:32:53;;;;;;;2.80;2.45;;;27.10;95.60;;;;;;5049682;28;20045;-70
2022/06/10 12:35:26;;;;;;;4.82;2.42;;;27.00;95.30;;;;;;5047322;28;20028;-71
2022/06/10 12:38:17;;;;;;;2.25;2.15;;;27.00;95.30;;;;;;5053857;28;20527;-72
2022/06/10 12:40:48;;;;;;;2.33;2.20;;;27.00;95.20;;;;;;5048521;28;20334;-71
2022/06/10 12:43:17;;;;;;;2.70;2.50;;;27.00;96.90;;;;;;5046713;28;20067;-70
2022/06/10 12:45:57;;;;;;;3.42;2.30;;;27.10;95.20;;;;;;5042625;28;20123;-72
2022/06/10 12:48:30;;;;;;;3.05;2.78;;;27.10;96.20;;;;;;5050723;28;20029;-73
2022/06/10 12:51:18;;;;;;;3.20;2.70;;;27.20;96.10;;;;;;5054821;28;20020;-72
2022/06/10 12:53:56;;;;;;;3.00;2.70;;;27.10;95.40;;;;;;5044434;28;20036;-72
2022/06/10 12:56:31;;;;;;;12.80;3.00;;;27.20;96.10;;;;;;5052635;28;20070;-71
2022/06/10 12:59:09;;;;;;;3.58;2.50;;;27.20;95.90;;;;;;5058490;28;20034;-71
2022/06/10 13:01:35;;;;;;;2.67;2.40;;;27.20;94.80;;;;;;5056338;28;20033;-73
2022/06/10 13:04:05;;;;;;;3.10;2.70;;;27.30;96.40;;;;;;5049541;28;20040;-73
2022/06/10 13:06:56;;;;;;;4.18;2.85;;;27.30;95.00;;;;;;5047490;28;20044;-73
2022/06/10 13:09:31;;;;;;;3.60;2.67;;;27.20;94.30;;;;;;5053618;28;20075;-73
2022/06/10 13:12:01;;;;;;;4.18;2.45;;;27.20;95.30;;;;;;5049807;28;20584;-73
2022/06/10 13:14:30;;;;;;;2.65;2.45;;;27.10;94.00;;;;;;5056576;28;20032;-74
2022/06/10 13:16:58;;;;;;;5.25;2.67;;;27.20;94.40;;;;;;5042670;28;20032;-72
2022/06/10 13:19:36;;;;;;;3.47;2.65;;;27.20;94.90;;;;;;5047922;28;20465;-74
2022/06/10 13:22:20;;;;;;;3.28;2.97;;;27.20;94.60;;;;;;5050198;28;20058;-73
2022/06/10 13:24:54;;;;;;;3.92;2.78;;;27.30;96.00;;;;;;5047798;28;21480;-76
2022/06/10 13:27:24;;;;;;;3.25;2.85;;;27.40;95.40;;;;;;5047416;28;20029;-74
2022/06/10 13:29:57;;;;;;;6.05;3.03;;;27.40;95.30;;;;;;5049718;28;20688;-73
2022/06/10 13:32:23;;;;;;;3.15;2.85;;;27.50;95.40;;;;;;5045161;28;20043;-73
2022/06/10 13:35:02;;;;;;;4.88;3.22;;;27.40;93.80;;;;;;5052312;28;20614;-72
2022/06/10 13:37:36;;;;;;;4.72;2.95;;;27.30;95.10;;;;;;5046043;28;20192;-72
2022/06/10 13:40:04;;;;;;;3.85;3.17;;;27.40;96.00;;;;;;5048877;28;21763;-74
2022/06/10 13:42:37;;;;;;;3.03;2.72;;;27.50;96.10;;;;;;5048788;28;20119;-72